sensor_id;sensor_type;location;lat;lon;timestamp;P1;durP1;ratioP1;P2;durP2;ratioP2
20069;SDS011;10195;50.868;4.382;2023-04-25T00:00:52;13.77;;;3.87;;
20069;SDS011;10195;50.868;4.382;2023-04-25T00:03:17;18.50;;;4.20;;
20069;SDS011;10195;50.868;4.382;2023-04-25T00:05:44;17.03;;;4.20;;
20069;SDS011;10195;50.868;4.382;2023-04-25T00:08:10;21.93;;;4.67;;
20069;SDS011;10195;50.868;4.382;2023-04-25T00:10:36;19.40;;;4.33;;
20069;SDS011;10195;50.868;4.382;2023-04-25T00:13:01;18.33;;;4.27;;
20069;SDS011;10195;50.868;4.382;2023-04-25T00:15:27;16.60;;;4.20;;
20069;SDS011;10195;50.868;4.382;2023-04-25T00:17:55;17.10;;;4.00;;
20069;SDS011;10195;50.868;4.382;2023-04-25T00:20:21;15.87;;;4.60;;
20069;SDS011;10195;50.868;4.382;2023-04-25T00:22:48;28.03;;;4.43;;
20069;SDS011;10195;50.868;4.382;2023-04-25T00:25:14;15.93;;;4.17;;
20069;SDS011;10195;50.868;4.382;2023-04-25T00:27:40;19.43;;;4.20;;
20069;SDS011;10195;50.868;4.382;2023-04-25T00:30:07;19.30;;;4.70;;
20069;SDS011;10195;50.868;4.382;2023-04-25T00:32:33;18.40;;;4.73;;
20069;SDS011;10195;50.868;4.382;2023-04-25T00:34:58;23.97;;;4.23;;
20069;SDS011;10195;50.868;4.382;2023-04-25T00:37:24;16.83;;;4.43;;
20069;SDS011;10195;50.868;4.382;2023-04-25T00:39:50;21.63;;;4.80;;
20069;SDS011;10195;50.868;4.382;2023-04-25T00:42:18;21.40;;;4.37;;
20069;SDS011;10195;50.868;4.382;2023-04-25T00:44:44;17.60;;;4.90;;
20069;SDS011;10195;50.868;4.382;2023-04-25T00:47:10;15.53;;;4.57;;
20069;SDS011;10195;50.868;4.382;2023-04-25T00:49:36;17.20;;;4.47;;
20069;SDS011;10195;50.868;4.382;2023-04-25T00:52:02;21.00;;;4.57;;
20069;SDS011;10195;50.868;4.382;2023-04-25T00:54:27;19.43;;;4.50;;
20069;SDS011;10195;50.868;4.382;2023-04-25T00:56:55;17.57;;;4.77;;
20069;SDS011;10195;50.868;4.382;2023-04-25T00:59:20;19.77;;;5.20;;
20069;SDS011;10195;50.868;4.382;2023-04-25T01:01:46;19.30;;;4.93;;
20069;SDS011;10195;50.868;4.382;2023-04-25T01:04:12;23.67;;;4.80;;
20069;SDS011;10195;50.868;4.382;2023-04-25T01:06:38;18.97;;;5.17;;
20069;SDS011;10195;50.868;4.382;2023-04-25T01:09:04;21.70;;;5.13;;
20069;SDS011;10195;50.868;4.382;2023-04-25T01:11:30;24.97;;;4.63;;
20069;SDS011;10195;50.868;4.382;2023-04-25T01:13:57;26.70;;;5.67;;
20069;SDS011;10195;50.868;4.382;2023-04-25T01:16:22;35.23;;;5.37;;
20069;SDS011;10195;50.868;4.382;2023-04-25T01:18:51;18.70;;;5.43;;
20069;SDS011;10195;50.868;4.382;2023-04-25T01:21:17;30.53;;;5.87;;
20069;SDS011;10195;50.868;4.382;2023-04-25T01:23:43;17.60;;;4.53;;
20069;SDS011;10195;50.868;4.382;2023-04-25T01:26:10;23.30;;;5.40;;
20069;SDS011;10195;50.868;4.382;2023-04-25T01:28:37;24.50;;;5.50;;
20069;SDS011;10195;50.868;4.382;2023-04-25T01:31:06;23.77;;;5.70;;
20069;SDS011;10195;50.868;4.382;2023-04-25T01:33:32;18.30;;;5.30;;
20069;SDS011;10195;50.868;4.382;2023-04-25T01:35:57;19.80;;;5.20;;
20069;SDS011;10195;50.868;4.382;2023-04-25T01:38:23;22.23;;;4.90;;
20069;SDS011;10195;50.868;4.382;2023-04-25T01:40:50;27.83;;;5.20;;
20069;SDS011;10195;50.868;4.382;2023-04-25T01:43:17;17.60;;;4.20;;
20069;SDS011;10195;50.868;4.382;2023-04-25T01:45:42;28.23;;;5.07;;
20069;SDS011;10195;50.868;4.382;2023-04-25T01:48:09;20.53;;;4.33;;
20069;SDS011;10195;50.868;4.382;2023-04-25T01:50:37;17.50;;;4.20;;
20069;SDS011;10195;50.868;4.382;2023-04-25T01:53:04;20.90;;;4.43;;
20069;SDS011;10195;50.868;4.382;2023-04-25T01:55:30;18.00;;;4.03;;
20069;SDS011;10195;50.868;4.382;2023-04-25T01:57:56;19.83;;;4.73;;
20069;SDS011;10195;50.868;4.382;2023-04-25T02:00:22;19.90;;;4.40;;
20069;SDS011;10195;50.868;4.382;2023-04-25T02:02:48;15.37;;;4.33;;
20069;SDS011;10195;50.868;4.382;2023-04-25T02:05:15;19.83;;;4.47;;
20069;SDS011;10195;50.868;4.382;2023-04-25T02:07:41;19.30;;;3.53;;
20069;SDS011;10195;50.868;4.382;2023-04-25T02:10:08;14.80;;;4.97;;
20069;SDS011;10195;50.868;4.382;2023-04-25T02:12:34;28.17;;;5.83;;
20069;SDS011;10195;50.868;4.382;2023-04-25T02:15:01;23.73;;;5.63;;
20069;SDS011;10195;50.868;4.382;2023-04-25T02:17:27;17.43;;;4.70;;
20069;SDS011;10195;50.868;4.382;2023-04-25T02:19:53;20.50;;;5.27;;
20069;SDS011;10195;50.868;4.382;2023-04-25T02:22:18;17.00;;;4.90;;
20069;SDS011;10195;50.868;4.382;2023-04-25T02:24:44;18.90;;;4.50;;
20069;SDS011;10195;50.868;4.382;2023-04-25T02:27:10;13.57;;;4.80;;
20069;SDS011;10195;50.868;4.382;2023-04-25T02:29:36;19.20;;;4.97;;
20069;SDS011;10195;50.868;4.382;2023-04-25T02:32:03;29.07;;;5.23;;
20069;SDS011;10195;50.868;4.382;2023-04-25T02:34:28;12.57;;;4.13;;
20069;SDS011;10195;50.868;4.382;2023-04-25T02:36:54;18.47;;;4.73;;
20069;SDS011;10195;50.868;4.382;2023-04-25T02:39:20;21.50;;;4.87;;
20069;SDS011;10195;50.868;4.382;2023-04-25T02:41:47;12.00;;;4.27;;
20069;SDS011;10195;50.868;4.382;2023-04-25T02:44:12;19.43;;;4.70;;
20069;SDS011;10195;50.868;4.382;2023-04-25T02:46:38;27.67;;;5.33;;
20069;SDS011;10195;50.868;4.382;2023-04-25T02:49:04;21.07;;;5.00;;
20069;SDS011;10195;50.868;4.382;2023-04-25T02:51:30;31.07;;;4.80;;
20069;SDS011;10195;50.868;4.382;2023-04-25T02:53:55;22.00;;;5.30;;
20069;SDS011;10195;50.868;4.382;2023-04-25T02:56:21;22.90;;;4.70;;
20069;SDS011;10195;50.868;4.382;2023-04-25T02:58:47;17.20;;;5.70;;
20069;SDS011;10195;50.868;4.382;2023-04-25T03:01:12;27.00;;;5.13;;
20069;SDS011;10195;50.868;4.382;2023-04-25T03:03:38;25.33;;;4.90;;
20069;SDS011;10195;50.868;4.382;2023-04-25T03:06:04;16.80;;;4.00;;
20069;SDS011;10195;50.868;4.382;2023-04-25T03:08:30;19.23;;;4.97;;
20069;SDS011;10195;50.868;4.382;2023-04-25T03:10:57;21.63;;;5.17;;
20069;SDS011;10195;50.868;4.382;2023-04-25T03:13:23;30.27;;;4.50;;
20069;SDS011;10195;50.868;4.382;2023-04-25T03:15:49;21.33;;;4.40;;
20069;SDS011;10195;50.868;4.382;2023-04-25T03:18:15;18.57;;;4.57;;
20069;SDS011;10195;50.868;4.382;2023-04-25T03:20:40;21.27;;;4.37;;
20069;SDS011;10195;50.868;4.382;2023-04-25T03:23:07;19.50;;;4.43;;
20069;SDS011;10195;50.868;4.382;2023-04-25T03:25:32;16.63;;;4.90;;
20069;SDS011;10195;50.868;4.382;2023-04-25T03:27:58;24.00;;;5.07;;
20069;SDS011;10195;50.868;4.382;2023-04-25T03:30:24;20.53;;;3.77;;
20069;SDS011;10195;50.868;4.382;2023-04-25T03:32:50;22.23;;;4.43;;
20069;SDS011;10195;50.868;4.382;2023-04-25T03:35:15;20.27;;;5.10;;
20069;SDS011;10195;50.868;4.382;2023-04-25T03:37:41;16.17;;;4.10;;
20069;SDS011;10195;50.868;4.382;2023-04-25T03:40:10;15.20;;;4.20;;
20069;SDS011;10195;50.868;4.382;2023-04-25T03:42:36;19.27;;;4.80;;
20069;SDS011;10195;50.868;4.382;2023-04-25T03:45:02;18.97;;;4.53;;
20069;SDS011;10195;50.868;4.382;2023-04-25T03:47:28;21.47;;;5.20;;
20069;SDS011;10195;50.868;4.382;2023-04-25T03:49:54;13.53;;;4.37;;
20069;SDS011;10195;50.868;4.382;2023-04-25T03:52:20;23.53;;;5.10;;
20069;SDS011;10195;50.868;4.382;2023-04-25T03:54:45;27.53;;;5.27;;
20069;SDS011;10195;50.868;4.382;2023-04-25T03:57:11;22.27;;;5.33;;
20069;SDS011;10195;50.868;4.382;2023-04-25T03:59:37;19.80;;;4.50;;
20069;SDS011;10195;50.868;4.382;2023-04-25T04:02:02;21.30;;;4.13;;
20069;SDS011;10195;50.868;4.382;2023-04-25T04:04:28;22.90;;;4.90;;
20069;SDS011;10195;50.868;4.382;2023-04-25T04:06:53;23.57;;;4.67;;
20069;SDS011;10195;50.868;4.382;2023-04-25T04:09:19;18.87;;;4.50;;
20069;SDS011;10195;50.868;4.382;2023-04-25T04:11:45;19.67;;;5.23;;
20069;SDS011;10195;50.868;4.382;2023-04-25T04:14:11;19.77;;;4.97;;
20069;SDS011;10195;50.868;4.382;2023-04-25T04:16:36;17.37;;;5.47;;
20069;SDS011;10195;50.868;4.382;2023-04-25T04:19:02;22.73;;;5.40;;
20069;SDS011;10195;50.868;4.382;2023-04-25T04:21:28;15.07;;;4.87;;
20069;SDS011;10195;50.868;4.382;2023-04-25T04:23:54;18.57;;;5.00;;
20069;SDS011;10195;50.868;4.382;2023-04-25T04:26:22;24.00;;;5.93;;
20069;SDS011;10195;50.868;4.382;2023-04-25T04:28:51;21.97;;;5.37;;
20069;SDS011;10195;50.868;4.382;2023-04-25T04:31:19;20.10;;;5.77;;
20069;SDS011;10195;50.868;4.382;2023-04-25T04:33:47;20.73;;;5.07;;
20069;SDS011;10195;50.868;4.382;2023-04-25T04:36:13;13.73;;;4.63;;
20069;SDS011;10195;50.868;4.382;2023-04-25T04:38:39;16.93;;;5.53;;
20069;SDS011;10195;50.868;4.382;2023-04-25T04:41:06;26.33;;;6.23;;
20069;SDS011;10195;50.868;4.382;2023-04-25T04:43:34;23.17;;;5.53;;
20069;SDS011;10195;50.868;4.382;2023-04-25T04:46:00;18.83;;;5.53;;
20069;SDS011;10195;50.868;4.382;2023-04-25T04:48:26;20.30;;;5.90;;
20069;SDS011;10195;50.868;4.382;2023-04-25T04:50:53;16.20;;;4.27;;
20069;SDS011;10195;50.868;4.382;2023-04-25T04:53:18;6.87;;;2.83;;
20069;SDS011;10195;50.868;4.382;2023-04-25T04:55:44;13.83;;;3.77;;
20069;SDS011;10195;50.868;4.382;2023-04-25T04:58:11;16.50;;;3.40;;
20069;SDS011;10195;50.868;4.382;2023-04-25T05:00:36;18.10;;;4.63;;
20069;SDS011;10195;50.868;4.382;2023-04-25T05:03:03;8.70;;;3.40;;
20069;SDS011;10195;50.868;4.382;2023-04-25T05:05:30;10.97;;;3.77;;
20069;SDS011;10195;50.868;4.382;2023-04-25T05:07:56;14.60;;;4.00;;
20069;SDS011;10195;50.868;4.382;2023-04-25T05:10:21;18.67;;;4.47;;
20069;SDS011;10195;50.868;4.382;2023-04-25T05:12:47;16.87;;;4.93;;
20069;SDS011;10195;50.868;4.382;2023-04-25T05:15:13;19.83;;;5.13;;
20069;SDS011;10195;50.868;4.382;2023-04-25T05:17:39;17.30;;;4.10;;
20069;SDS011;10195;50.868;4.382;2023-04-25T05:20:05;16.77;;;5.40;;
20069;SDS011;10195;50.868;4.382;2023-04-25T05:22:34;19.10;;;5.47;;
20069;SDS011;10195;50.868;4.382;2023-04-25T05:25:00;6.63;;;3.37;;
20069;SDS011;10195;50.868;4.382;2023-04-25T05:27:26;26.10;;;4.30;;
20069;SDS011;10195;50.868;4.382;2023-04-25T05:29:51;14.53;;;4.03;;
20069;SDS011;10195;50.868;4.382;2023-04-25T05:32:18;16.60;;;4.00;;
20069;SDS011;10195;50.868;4.382;2023-04-25T05:34:43;19.73;;;4.80;;
20069;SDS011;10195;50.868;4.382;2023-04-25T05:37:09;21.67;;;4.73;;
20069;SDS011;10195;50.868;4.382;2023-04-25T05:39:35;21.30;;;4.70;;
20069;SDS011;10195;50.868;4.382;2023-04-25T05:42:00;18.37;;;4.40;;
20069;SDS011;10195;50.868;4.382;2023-04-25T05:44:27;17.87;;;4.13;;
20069;SDS011;10195;50.868;4.382;2023-04-25T05:46:53;17.43;;;4.23;;
20069;SDS011;10195;50.868;4.382;2023-04-25T05:49:20;20.70;;;5.50;;
20069;SDS011;10195;50.868;4.382;2023-04-25T05:51:46;18.13;;;4.97;;
20069;SDS011;10195;50.868;4.382;2023-04-25T05:54:11;13.93;;;4.70;;
20069;SDS011;10195;50.868;4.382;2023-04-25T05:56:37;25.53;;;5.83;;
20069;SDS011;10195;50.868;4.382;2023-04-25T05:59:03;27.50;;;5.70;;
20069;SDS011;10195;50.868;4.382;2023-04-25T06:01:28;24.23;;;6.40;;
20069;SDS011;10195;50.868;4.382;2023-04-25T06:03:54;22.50;;;5.10;;
20069;SDS011;10195;50.868;4.382;2023-04-25T06:06:20;15.30;;;4.67;;
20069;SDS011;10195;50.868;4.382;2023-04-25T06:08:46;19.93;;;5.27;;
20069;SDS011;10195;50.868;4.382;2023-04-25T06:11:12;24.07;;;6.00;;
20069;SDS011;10195;50.868;4.382;2023-04-25T06:13:38;19.57;;;4.90;;
20069;SDS011;10195;50.868;4.382;2023-04-25T06:16:04;22.80;;;6.00;;
20069;SDS011;10195;50.868;4.382;2023-04-25T06:18:30;19.33;;;5.40;;
20069;SDS011;10195;50.868;4.382;2023-04-25T06:20:55;25.27;;;5.70;;
20069;SDS011;10195;50.868;4.382;2023-04-25T06:23:21;21.63;;;5.67;;
20069;SDS011;10195;50.868;4.382;2023-04-25T06:25:47;21.17;;;5.63;;
20069;SDS011;10195;50.868;4.382;2023-04-25T06:28:12;20.87;;;5.90;;
20069;SDS011;10195;50.868;4.382;2023-04-25T06:30:38;18.10;;;5.93;;
20069;SDS011;10195;50.868;4.382;2023-04-25T06:33:03;20.37;;;5.67;;
20069;SDS011;10195;50.868;4.382;2023-04-25T06:35:29;23.27;;;5.13;;
20069;SDS011;10195;50.868;4.382;2023-04-25T06:37:55;20.37;;;4.83;;
20069;SDS011;10195;50.868;4.382;2023-04-25T06:40:20;24.47;;;5.30;;
20069;SDS011;10195;50.868;4.382;2023-04-25T06:42:46;15.53;;;4.53;;
20069;SDS011;10195;50.868;4.382;2023-04-25T06:45:12;29.50;;;4.60;;
20069;SDS011;10195;50.868;4.382;2023-04-25T06:47:38;15.03;;;4.00;;
20069;SDS011;10195;50.868;4.382;2023-04-25T06:50:03;14.40;;;4.33;;
20069;SDS011;10195;50.868;4.382;2023-04-25T06:52:30;17.67;;;3.90;;
20069;SDS011;10195;50.868;4.382;2023-04-25T06:54:56;14.50;;;4.10;;
20069;SDS011;10195;50.868;4.382;2023-04-25T06:57:22;16.80;;;4.03;;
20069;SDS011;10195;50.868;4.382;2023-04-25T06:59:48;14.47;;;3.77;;
20069;SDS011;10195;50.868;4.382;2023-04-25T07:02:14;11.80;;;3.30;;
20069;SDS011;10195;50.868;4.382;2023-04-25T07:04:39;15.20;;;3.87;;
20069;SDS011;10195;50.868;4.382;2023-04-25T07:07:05;18.23;;;3.13;;
20069;SDS011;10195;50.868;4.382;2023-04-25T07:09:31;13.40;;;2.43;;
20069;SDS011;10195;50.868;4.382;2023-04-25T07:11:58;18.87;;;4.17;;
20069;SDS011;10195;50.868;4.382;2023-04-25T07:14:26;14.00;;;3.43;;
20069;SDS011;10195;50.868;4.382;2023-04-25T07:16:52;18.03;;;4.13;;
20069;SDS011;10195;50.868;4.382;2023-04-25T07:19:18;22.10;;;4.03;;
20069;SDS011;10195;50.868;4.382;2023-04-25T07:21:43;14.30;;;3.93;;
20069;SDS011;10195;50.868;4.382;2023-04-25T07:24:09;20.70;;;3.77;;
20069;SDS011;10195;50.868;4.382;2023-04-25T07:26:35;18.57;;;4.30;;
20069;SDS011;10195;50.868;4.382;2023-04-25T07:29:00;17.07;;;3.67;;
20069;SDS011;10195;50.868;4.382;2023-04-25T07:31:26;17.80;;;4.17;;
20069;SDS011;10195;50.868;4.382;2023-04-25T07:33:52;14.30;;;3.43;;
20069;SDS011;10195;50.868;4.382;2023-04-25T07:36:18;13.40;;;3.63;;
20069;SDS011;10195;50.868;4.382;2023-04-25T07:38:44;10.97;;;2.67;;
20069;SDS011;10195;50.868;4.382;2023-04-25T07:41:09;16.83;;;3.40;;
20069;SDS011;10195;50.868;4.382;2023-04-25T07:43:36;16.13;;;4.27;;
20069;SDS011;10195;50.868;4.382;2023-04-25T07:46:02;14.53;;;3.60;;
20069;SDS011;10195;50.868;4.382;2023-04-25T07:48:28;13.17;;;3.40;;
20069;SDS011;10195;50.868;4.382;2023-04-25T07:50:53;20.30;;;3.47;;
20069;SDS011;10195;50.868;4.382;2023-04-25T07:53:20;16.50;;;3.40;;
20069;SDS011;10195;50.868;4.382;2023-04-25T07:55:47;7.93;;;2.17;;
20069;SDS011;10195;50.868;4.382;2023-04-25T07:58:13;12.23;;;3.27;;
20069;SDS011;10195;50.868;4.382;2023-04-25T08:00:40;10.90;;;2.90;;
20069;SDS011;10195;50.868;4.382;2023-04-25T08:03:06;9.47;;;2.83;;
20069;SDS011;10195;50.868;4.382;2023-04-25T08:05:32;13.90;;;2.70;;
20069;SDS011;10195;50.868;4.382;2023-04-25T08:07:58;19.47;;;3.77;;
20069;SDS011;10195;50.868;4.382;2023-04-25T08:10:24;13.90;;;2.83;;
20069;SDS011;10195;50.868;4.382;2023-04-25T08:12:50;14.10;;;3.07;;
20069;SDS011;10195;50.868;4.382;2023-04-25T08:15:15;9.37;;;2.70;;
20069;SDS011;10195;50.868;4.382;2023-04-25T08:17:41;12.83;;;2.90;;
20069;SDS011;10195;50.868;4.382;2023-04-25T08:20:08;11.90;;;3.00;;
20069;SDS011;10195;50.868;4.382;2023-04-25T08:22:35;18.53;;;3.60;;
20069;SDS011;10195;50.868;4.382;2023-04-25T08:25:01;19.53;;;3.73;;
20069;SDS011;10195;50.868;4.382;2023-04-25T08:27:27;19.67;;;2.90;;
20069;SDS011;10195;50.868;4.382;2023-04-25T08:29:52;12.43;;;2.63;;
20069;SDS011;10195;50.868;4.382;2023-04-25T08:32:19;19.70;;;3.47;;
20069;SDS011;10195;50.868;4.382;2023-04-25T08:34:46;22.73;;;3.63;;
20069;SDS011;10195;50.868;4.382;2023-04-25T08:37:12;16.43;;;3.43;;
20069;SDS011;10195;50.868;4.382;2023-04-25T08:39:38;12.70;;;2.87;;
20069;SDS011;10195;50.868;4.382;2023-04-25T08:42:04;6.40;;;2.50;;
20069;SDS011;10195;50.868;4.382;2023-04-25T08:44:34;10.83;;;2.93;;
20069;SDS011;10195;50.868;4.382;2023-04-25T08:47:02;8.10;;;2.90;;
20069;SDS011;10195;50.868;4.382;2023-04-25T08:49:29;12.60;;;3.00;;
20069;SDS011;10195;50.868;4.382;2023-04-25T08:52:02;5.20;;;1.80;;
20069;SDS011;10195;50.868;4.382;2023-04-25T08:54:32;15.53;;;3.40;;
20069;SDS011;10195;50.868;4.382;2023-04-25T08:57:00;13.37;;;2.53;;
20069;SDS011;10195;50.868;4.382;2023-04-25T08:59:29;9.60;;;2.73;;
20069;SDS011;10195;50.868;4.382;2023-04-25T09:01:56;9.50;;;2.43;;
20069;SDS011;10195;50.868;4.382;2023-04-25T09:04:22;7.47;;;2.47;;
20069;SDS011;10195;50.868;4.382;2023-04-25T09:06:50;13.00;;;3.00;;
20069;SDS011;10195;50.868;4.382;2023-04-25T09:09:17;7.23;;;2.40;;
20069;SDS011;10195;50.868;4.382;2023-04-25T09:11:43;12.17;;;2.93;;
20069;SDS011;10195;50.868;4.382;2023-04-25T09:14:12;8.17;;;2.73;;
20069;SDS011;10195;50.868;4.382;2023-04-25T09:16:59;9.97;;;2.37;;
20069;SDS011;10195;50.868;4.382;2023-04-25T09:19:34;11.30;;;2.80;;
20069;SDS011;10195;50.868;4.382;2023-04-25T09:22:10;11.27;;;2.77;;
20069;SDS011;10195;50.868;4.382;2023-04-25T09:24:41;12.83;;;3.33;;
20069;SDS011;10195;50.868;4.382;2023-04-25T09:27:10;8.20;;;2.67;;
20069;SDS011;10195;50.868;4.382;2023-04-25T09:29:38;5.97;;;2.10;;
20069;SDS011;10195;50.868;4.382;2023-04-25T09:32:27;9.33;;;1.97;;
20069;SDS011;10195;50.868;4.382;2023-04-25T09:34:56;8.80;;;2.20;;
20069;SDS011;10195;50.868;4.382;2023-04-25T09:37:23;14.93;;;2.70;;
20069;SDS011;10195;50.868;4.382;2023-04-25T09:39:51;7.83;;;1.93;;
20069;SDS011;10195;50.868;4.382;2023-04-25T09:42:25;10.53;;;2.50;;
20069;SDS011;10195;50.868;4.382;2023-04-25T09:44:55;14.03;;;2.63;;
20069;SDS011;10195;50.868;4.382;2023-04-25T09:47:22;10.63;;;2.50;;
20069;SDS011;10195;50.868;4.382;2023-04-25T09:49:52;9.90;;;2.30;;
20069;SDS011;10195;50.868;4.382;2023-04-25T09:52:20;10.77;;;2.53;;
20069;SDS011;10195;50.868;4.382;2023-04-25T09:54:47;5.70;;;2.53;;
20069;SDS011;10195;50.868;4.382;2023-04-25T09:57:17;8.33;;;2.53;;
20069;SDS011;10195;50.868;4.382;2023-04-25T09:59:48;10.13;;;2.23;;
20069;SDS011;10195;50.868;4.382;2023-04-25T10:02:16;5.00;;;1.87;;
20069;SDS011;10195;50.868;4.382;2023-04-25T10:04:47;7.90;;;2.10;;
20069;SDS011;10195;50.868;4.382;2023-04-25T10:07:14;7.00;;;2.20;;
20069;SDS011;10195;50.868;4.382;2023-04-25T10:09:41;8.53;;;1.80;;
20069;SDS011;10195;50.868;4.382;2023-04-25T10:12:10;11.37;;;2.07;;
20069;SDS011;10195;50.868;4.382;2023-04-25T10:14:36;8.27;;;1.33;;
20069;SDS011;10195;50.868;4.382;2023-04-25T10:17:04;6.90;;;1.70;;
20069;SDS011;10195;50.868;4.382;2023-04-25T10:19:31;4.07;;;1.60;;
20069;SDS011;10195;50.868;4.382;2023-04-25T10:22:14;4.97;;;1.47;;
20069;SDS011;10195;50.868;4.382;2023-04-25T10:24:46;5.53;;;1.50;;
20069;SDS011;10195;50.868;4.382;2023-04-25T10:27:12;5.90;;;1.57;;
20069;SDS011;10195;50.868;4.382;2023-04-25T10:29:38;7.10;;;2.03;;
20069;SDS011;10195;50.868;4.382;2023-04-25T10:32:06;2.90;;;1.47;;
20069;SDS011;10195;50.868;4.382;2023-04-25T10:34:40;5.63;;;1.57;;
20069;SDS011;10195;50.868;4.382;2023-04-25T10:37:09;3.53;;;1.50;;
20069;SDS011;10195;50.868;4.382;2023-04-25T10:39:36;6.80;;;1.90;;
20069;SDS011;10195;50.868;4.382;2023-04-25T10:42:05;9.27;;;1.43;;
20069;SDS011;10195;50.868;4.382;2023-04-25T10:44:32;4.97;;;1.80;;
20069;SDS011;10195;50.868;4.382;2023-04-25T10:46:59;5.50;;;1.63;;
20069;SDS011;10195;50.868;4.382;2023-04-25T10:49:36;10.33;;;2.20;;
20069;SDS011;10195;50.868;4.382;2023-04-25T10:57:36;8.50;;;2.03;;
20069;SDS011;10195;50.868;4.382;2023-04-25T11:00:14;5.27;;;2.00;;
20069;SDS011;10195;50.868;4.382;2023-04-25T11:02:57;13.80;;;2.53;;
20069;SDS011;10195;50.868;4.382;2023-04-25T11:05:29;7.63;;;1.73;;
20069;SDS011;10195;50.868;4.382;2023-04-25T11:07:58;3.13;;;1.70;;
20069;SDS011;10195;50.868;4.382;2023-04-25T11:10:28;10.30;;;4.90;;
20069;SDS011;10195;50.868;4.382;2023-04-25T11:12:55;14.67;;;4.03;;
20069;SDS011;10195;50.868;4.382;2023-04-25T11:15:21;19.83;;;6.77;;
20069;SDS011;10195;50.868;4.382;2023-04-25T11:17:47;13.63;;;2.77;;
20069;SDS011;10195;50.868;4.382;2023-04-25T11:20:13;9.60;;;2.10;;
20069;SDS011;10195;50.868;4.382;2023-04-25T11:22:40;13.63;;;2.50;;
20069;SDS011;10195;50.868;4.382;2023-04-25T11:25:09;5.57;;;1.30;;
20069;SDS011;10195;50.868;4.382;2023-04-25T11:30:18;9.43;;;2.20;;
20069;SDS011;10195;50.868;4.382;2023-04-25T11:32:44;5.50;;;1.87;;
20069;SDS011;10195;50.868;4.382;2023-04-25T11:35:10;8.87;;;1.90;;
20069;SDS011;10195;50.868;4.382;2023-04-25T11:37:38;9.63;;;1.77;;
20069;SDS011;10195;50.868;4.382;2023-04-25T11:40:05;3.73;;;1.80;;
20069;SDS011;10195;50.868;4.382;2023-04-25T11:42:32;6.27;;;1.77;;
20069;SDS011;10195;50.868;4.382;2023-04-25T11:44:58;9.60;;;1.93;;
20069;SDS011;10195;50.868;4.382;2023-04-25T11:47:29;3.40;;;1.20;;
20069;SDS011;10195;50.868;4.382;2023-04-25T11:49:55;3.10;;;1.27;;
20069;SDS011;10195;50.868;4.382;2023-04-25T11:52:22;4.23;;;1.30;;
20069;SDS011;10195;50.868;4.382;2023-04-25T11:54:48;4.87;;;1.27;;
20069;SDS011;10195;50.868;4.382;2023-04-25T11:57:13;3.07;;;1.33;;
20069;SDS011;10195;50.868;4.382;2023-04-25T11:59:39;5.63;;;1.53;;
20069;SDS011;10195;50.868;4.382;2023-04-25T12:02:05;3.23;;;1.17;;
20069;SDS011;10195;50.868;4.382;2023-04-25T12:04:32;5.13;;;1.80;;
20069;SDS011;10195;50.868;4.382;2023-04-25T12:06:57;4.83;;;1.70;;
20069;SDS011;10195;50.868;4.382;2023-04-25T12:09:30;8.83;;;2.50;;
20069;SDS011;10195;50.868;4.382;2023-04-25T12:11:58;5.20;;;2.00;;
20069;SDS011;10195;50.868;4.382;2023-04-25T12:14:29;8.60;;;1.70;;
20069;SDS011;10195;50.868;4.382;2023-04-25T12:16:58;8.80;;;1.60;;
20069;SDS011;10195;50.868;4.382;2023-04-25T12:19:25;1.70;;;1.20;;
20069;SDS011;10195;50.868;4.382;2023-04-25T12:21:52;3.63;;;1.13;;
20069;SDS011;10195;50.868;4.382;2023-04-25T12:24:22;4.23;;;1.30;;
20069;SDS011;10195;50.868;4.382;2023-04-25T12:26:58;2.00;;;1.00;;
20069;SDS011;10195;50.868;4.382;2023-04-25T12:29:29;13.23;;;1.40;;
20069;SDS011;10195;50.868;4.382;2023-04-25T12:31:57;2.53;;;1.07;;
20069;SDS011;10195;50.868;4.382;2023-04-25T12:34:23;4.07;;;1.40;;
20069;SDS011;10195;50.868;4.382;2023-04-25T12:36:50;5.57;;;2.00;;
20069;SDS011;10195;50.868;4.382;2023-04-25T12:39:17;4.40;;;1.30;;
20069;SDS011;10195;50.868;4.382;2023-04-25T12:41:44;6.20;;;1.37;;
20069;SDS011;10195;50.868;4.382;2023-04-25T12:44:11;4.23;;;1.57;;
20069;SDS011;10195;50.868;4.382;2023-04-25T12:46:39;5.90;;;1.80;;
20069;SDS011;10195;50.868;4.382;2023-04-25T12:49:08;2.93;;;1.13;;
20069;SDS011;10195;50.868;4.382;2023-04-25T12:51:36;3.83;;;1.60;;
20069;SDS011;10195;50.868;4.382;2023-04-25T12:54:02;2.80;;;1.30;;
20069;SDS011;10195;50.868;4.382;2023-04-25T12:56:29;5.93;;;1.97;;
20069;SDS011;10195;50.868;4.382;2023-04-25T12:58:55;4.07;;;1.50;;
20069;SDS011;10195;50.868;4.382;2023-04-25T13:01:22;8.83;;;2.37;;
20069;SDS011;10195;50.868;4.382;2023-04-25T13:03:48;3.90;;;1.17;;
20069;SDS011;10195;50.868;4.382;2023-04-25T13:06:14;6.73;;;1.57;;
20069;SDS011;10195;50.868;4.382;2023-04-25T13:08:40;4.10;;;1.90;;
20069;SDS011;10195;50.868;4.382;2023-04-25T13:11:07;7.70;;;1.80;;
20069;SDS011;10195;50.868;4.382;2023-04-25T13:13:33;7.13;;;1.30;;
20069;SDS011;10195;50.868;4.382;2023-04-25T13:16:02;4.87;;;1.50;;
20069;SDS011;10195;50.868;4.382;2023-04-25T13:18:29;1.67;;;1.10;;
20069;SDS011;10195;50.868;4.382;2023-04-25T13:20:56;7.83;;;1.83;;
20069;SDS011;10195;50.868;4.382;2023-04-25T13:23:22;2.53;;;1.30;;
20069;SDS011;10195;50.868;4.382;2023-04-25T13:25:50;4.37;;;1.23;;
20069;SDS011;10195;50.868;4.382;2023-04-25T13:28:15;11.47;;;2.50;;
20069;SDS011;10195;50.868;4.382;2023-04-25T13:30:42;5.67;;;2.00;;
20069;SDS011;10195;50.868;4.382;2023-04-25T13:33:08;7.43;;;2.60;;
20069;SDS011;10195;50.868;4.382;2023-04-25T13:35:35;5.90;;;1.70;;
20069;SDS011;10195;50.868;4.382;2023-04-25T13:38:02;2.77;;;1.50;;
20069;SDS011;10195;50.868;4.382;2023-04-25T13:40:28;2.50;;;0.80;;
20069;SDS011;10195;50.868;4.382;2023-04-25T13:42:54;2.63;;;1.07;;
20069;SDS011;10195;50.868;4.382;2023-04-25T13:45:21;3.60;;;1.23;;
20069;SDS011;10195;50.868;4.382;2023-04-25T13:47:47;6.80;;;1.53;;
20069;SDS011;10195;50.868;4.382;2023-04-25T13:50:12;3.33;;;1.00;;
20069;SDS011;10195;50.868;4.382;2023-04-25T13:52:39;4.80;;;1.73;;
20069;SDS011;10195;50.868;4.382;2023-04-25T13:55:06;10.80;;;1.70;;
20069;SDS011;10195;50.868;4.382;2023-04-25T13:57:32;12.20;;;2.83;;
20069;SDS011;10195;50.868;4.382;2023-04-25T14:00:00;6.67;;;1.57;;
20069;SDS011;10195;50.868;4.382;2023-04-25T14:02:31;12.07;;;1.93;;
20069;SDS011;10195;50.868;4.382;2023-04-25T14:04:57;4.40;;;1.90;;
20069;SDS011;10195;50.868;4.382;2023-04-25T14:07:22;7.37;;;2.33;;
20069;SDS011;10195;50.868;4.382;2023-04-25T14:09:50;2.90;;;1.37;;
20069;SDS011;10195;50.868;4.382;2023-04-25T14:12:15;5.07;;;1.73;;
20069;SDS011;10195;50.868;4.382;2023-04-25T14:14:42;4.10;;;1.63;;
20069;SDS011;10195;50.868;4.382;2023-04-25T14:17:08;6.27;;;1.47;;
20069;SDS011;10195;50.868;4.382;2023-04-25T14:19:35;4.10;;;1.63;;
20069;SDS011;10195;50.868;4.382;2023-04-25T14:22:02;5.53;;;1.27;;
20069;SDS011;10195;50.868;4.382;2023-04-25T14:24:28;7.97;;;1.50;;
20069;SDS011;10195;50.868;4.382;2023-04-25T14:26:53;3.50;;;1.30;;
20069;SDS011;10195;50.868;4.382;2023-04-25T14:29:19;4.33;;;1.30;;
20069;SDS011;10195;50.868;4.382;2023-04-25T14:31:45;6.23;;;1.53;;
20069;SDS011;10195;50.868;4.382;2023-04-25T14:34:10;3.60;;;1.23;;
20069;SDS011;10195;50.868;4.382;2023-04-25T14:36:36;3.67;;;1.20;;
20069;SDS011;10195;50.868;4.382;2023-04-25T14:39:02;10.10;;;1.60;;
20069;SDS011;10195;50.868;4.382;2023-04-25T14:41:30;4.20;;;1.53;;
20069;SDS011;10195;50.868;4.382;2023-04-25T14:43:55;5.43;;;1.87;;